METAR Data
IDs: Format: Raw Decoded Include TAF

Data at: 0155 UTC 23 Apr 2021

KWVI 221253Z AUTO 00000KT 10SM OVC012 09/07 A2995 RMK AO2 SLP143 T00940072
KWVI 221153Z AUTO 00000KT 10SM OVC011 09/07 A2995 RMK AO2 SLP140 60000 7//// T00940072 10100 20094 51003
KWVI 221053Z AUTO 18006KT 10SM OVC010 09/07 A2994 RMK AO2 SLP138 T00940072
KWVI 221036Z AUTO 19005KT 10SM OVC010 09/07 A2994 RMK AO2 T00940072
KWVI 220953Z AUTO 20003KT 8SM OVC008 09/08 A2994 RMK AO2 RAB0855E03 SLP139 P0000 T00940083
KWVI 220853Z AUTO 19003KT 6SM BR OVC008 09/08 A2994 RMK AO2 CIG 006V010 SLP136 T00940083 50000
KWVI 220753Z AUTO 20005KT 7SM OVC008 10/08 A2994 RMK AO2 SLP140 T01000083 401330100
KWVI 220715Z AUTO 18003KT 9SM OVC009 10/08 A2994 RMK AO2 T01000078
KWVI 220653Z AUTO 13005KT 10SM OVC010 10/08 A2994 RMK AO2 SLP137 T01000078
KWVI 220618Z AUTO 16003KT 10SM OVC010 10/08 A2994 RMK AO2 T01000078
KWVI 220553Z AUTO 18004KT 9SM OVC009 10/08 A2993 RMK AO2 SLP136 T01000078 10117 20100 51012
KWVI 220534Z AUTO 19005KT 9SM OVC009 10/08 A2993 RMK AO2 T01000078
KWVI 220453Z AUTO 22004KT 10SM OVC010 10/08 A2993 RMK AO2 SLP134 T01000078
KWVI 220419Z AUTO 26004KT 9SM OVC010 10/08 A2992 RMK AO2 T01000078
KWVI 220353Z AUTO 00000KT 10SM OVC009 10/08 A2991 RMK AO2 SLP128 T01000078
KWVI 220253Z AUTO 24004KT 10SM OVC009 10/08 A2990 RMK AO2 SLP124 T01000078 55002
KWVI 220238Z AUTO 22004KT 9SM OVC009 10/08 A2990 RMK AO2 T01000083
No TAF found for KWVI

KSNS 230125Z 30008KT 9SM OVC014 12/08 A2998 RMK AO2 T01220083
KSNS 230053Z 30011KT 10SM OVC015 13/08 A2998 RMK AO2 SLP160 T01280078
KSNS 230008Z 29010KT 10SM OVC015 13/08 A2998 RMK AO2 T01330078
KSNS 222353Z 31008KT 10SM OVC014 13/08 A2998 RMK AO2 SLP160 T01330083 10156 20122 58010
KSNS 222253Z 29011KT 10SM OVC019 14/07 A3000 RMK AO2 SLP166 T01390072
KSNS 222153Z 32014KT 10SM OVC019 14/08 A3000 RMK AO2 SLP169 T01440078
KSNS 222053Z 31011KT 10SM OVC020 14/08 A3001 RMK AO2 SLP171 T01440078 55002
KSNS 221953Z 29011KT 9SM OVC020 14/08 A3001 RMK AO2 SLP170 T01440078
KSNS 221853Z 00000KT 10SM OVC022 14/07 A3001 RMK AO2 SLP172 T01390072
KSNS 221753Z 00000KT 10SM OVC020 13/07 A3002 RMK AO2 SLP173 T01280067 10128 20106 53008
KSNS 221653Z 00000KT 10SM OVC016 12/07 A3001 RMK AO2 SLP170 T01170067
KSNS 221553Z 19005KT 10SM OVC015 11/07 A2999 RMK AO2 SLP164 T01110072
KSNS 221531Z 20004KT 9SM OVC015 11/07 A2999 RMK AO2 T01110072
KSNS 221453Z 00000KT 9SM OVC014 11/07 A2999 RMK AO2 SLP165 T01060072 53016
KSNS 221353Z 20004KT 10SM OVC014 11/07 A2998 RMK AO2 SLP159 T01060067
KSNS 221253Z 26003KT 10SM OVC014 11/07 A2995 RMK AO2 SLP152 T01060067
KSNS 221153Z AUTO 27005KT 10SM OVC013 11/07 A2994 RMK AO2 SLP148 T01060067 10111 20106 53001
KSNS 221053Z AUTO 26006KT 10SM OVC012 11/07 A2994 RMK AO2 SLP146 T01060067
KSNS 220953Z AUTO 28006KT 10SM OVC012 11/07 A2995 RMK AO2 SLP149 T01060072
KSNS 220853Z AUTO 29006KT 10SM OVC013 11/07 A2994 RMK AO2 SLP147 T01060067 50003
KSNS 220753Z AUTO 26005KT 10SM OVC012 11/07 A2994 RMK AO2 SLP148 T01060072 401390106
KSNS 220653Z AUTO 28004KT 9SM OVC011 11/08 A2994 RMK AO2 SLP147 T01060078
KSNS 220553Z AUTO 26005KT 10SM OVC011 11/07 A2993 RMK AO2 SLP145 T01060072 10128 20106 51012
KSNS 220453Z AUTO 29005KT 10SM OVC012 11/07 A2993 RMK AO2 SLP144 T01110072
KSNS 220353Z AUTO 31009KT 10SM OVC011 11/08 A2991 RMK AO2 SLP137 T01110078
KSNS 220253Z AUTO 28010KT 9SM OVC011 12/08 A2990 RMK AO2 SLP132 T01170078 55004

KSNS 222332Z 2300/2324 28011KT P6SM OVC017
  FM230300 28007KT P6SM OVC014
  FM230800 VRB04KT P6SM OVC010
  FM231100 VRB03KT P6SM OVC008
  FM231700 VRB03KT P6SM OVC012
  FM231900 29006KT P6SM BKN014 BKN250
  FM232100 29013KT P6SM SCT016 BKN250


KMRY 230054Z 27008KT 10SM OVC012 12/08 A2999 RMK AO2 SLP169 T01220078
KMRY 230016Z 26010KT 10SM OVC014 13/08 A2999 RMK AO2 T01280083
KMRY 222354Z 24007KT 10SM FEW010 OVC015 13/08 A2999 RMK AO2 SLP168 T01330083 10144 20128 56009
KMRY 222313Z 25008KT 9SM OVC013 13/08 A3000 RMK AO2 T01330083
KMRY 222254Z 26009KT 10SM OVC015 13/08 A3001 RMK AO2 SLP173 T01330083
KMRY 222154Z 26011KT 10SM OVC018 14/08 A3002 RMK AO2 SLP177 T01440078
KMRY 222054Z 26013KT 8SM OVC015 14/08 A3002 RMK AO2 SLP179 T01390083 50001
KMRY 222036Z 26010KT 10SM OVC015 13/08 A3002 RMK AO2 T01330083
KMRY 222001Z 23008KT 10SM OVC013 13/08 A3002 RMK AO2 T01280083
KMRY 221954Z 25009KT 10SM OVC015 13/08 A3003 RMK AO2 SLP179 T01330083
KMRY 221854Z 26010KT 10SM OVC013 13/08 A3003 RMK AO2 SLP180 T01330083
KMRY 221754Z 27004KT 10SM OVC014 13/08 A3002 RMK AO2 SLP177 T01330078 10133 20111 53010
KMRY 221722Z VRB05KT 10SM OVC015 13/08 A3002 RMK AO2 T01280078
KMRY 221654Z 20003KT 10SM OVC014 12/08 A3001 RMK AO2 SLP173 T01220078
KMRY 221603Z 17004KT 10SM OVC014 12/07 A3000 RMK AO2 T01170072
KMRY 221554Z 18004KT 10SM OVC015 12/07 A2999 RMK AO2 SLP168 T01170072
KMRY 221550Z 14005KT 10SM OVC015 12/07 A2999 RMK AO2
KMRY 221454Z VRB03KT 9SM OVC013 11/07 A2999 RMK AO2 SLP169 T01110072 53015
KMRY 221354Z 23003KT 7SM OVC011 11/07 A2998 RMK AO2 SLP163 T01110072
KMRY 221254Z 21003KT 10SM OVC011 11/07 A2996 RMK AO2 SLP157 T01110072
KMRY 221154Z AUTO 22003KT 10SM OVC012 11/07 A2995 RMK AO2 SLP153 T01110072 10111 20106 51002
KMRY 221054Z AUTO 19003KT 9SM OVC011 11/07 A2994 RMK AO2 SLP152 T01110072
KMRY 220954Z AUTO 24004KT 10SM OVC011 11/07 A2995 RMK AO2 SLP153 T01110072
KMRY 220854Z AUTO 23004KT 10SM OVC011 11/07 A2994 RMK AO2 SLP151 T01110072 50000
KMRY 220754Z AUTO 22003KT 9SM OVC010 11/08 A2995 RMK AO2 SLP154 T01110078 401330106
KMRY 220654Z AUTO 24007KT 10SM OVC010 11/08 A2995 RMK AO2 SLP153 T01110078
KMRY 220554Z AUTO 23006KT 10SM OVC010 11/08 A2994 RMK AO2 SLP151 T01110078 10128 20111 51012
KMRY 220454Z AUTO 26007KT 9SM OVC010 11/08 A2994 RMK AO2 SLP149 T01110078
KMRY 220441Z AUTO 26004KT 9SM OVC010 11/08 A2993 RMK AO2 T01110078
KMRY 220426Z AUTO 26005KT 10SM OVC009 11/08 A2993 RMK AO2 T01110078
KMRY 220401Z AUTO 27006KT 10SM OVC010 11/08 A2993 RMK AO2 T01110078
KMRY 220354Z 26007KT 10SM OVC009 11/08 A2992 RMK AO2 SLP144 T01110078
KMRY 220254Z 27007KT 10SM OVC009 12/08 A2991 RMK AO2 SLP139 T01170078 55003
KMRY 220225Z 27007KT 8SM OVC009 12/08 A2990 RMK AO2 T01170083

KMRY 222332Z 2300/2324 24008KT P6SM OVC013
  FM230500 23007KT P6SM OVC009
  FM230800 21006KT P6SM OVC007
  FM231700 VRB05KT P6SM OVC011
  FM231900 27006KT P6SM BKN013 BKN250
  FM232100 27011KT P6SM SCT015 BKN250


KSJC 230053Z 33016KT 10SM FEW015 FEW023 FEW100 16/07 A2994 RMK AO2 SLP137 T01560072
KSJC 222353Z 33017KT 10SM FEW015 FEW023 FEW100 17/08 A2994 RMK AO2 SLP136 T01670078 10200 20150 55003
KSJC 222253Z 34013KT 10SM FEW016 FEW030 FEW100 17/08 A2993 RMK AO2 SLP133 T01720083
KSJC 222153Z 32014KT 10SM FEW016 FEW030 18/08 A2995 RMK AO2 SLP140 T01830083
KSJC 222053Z 33013KT 10SM FEW016 FEW030 FEW100 20/09 A2994 RMK AO2 SLP139 T02000089 58007
KSJC 221953Z VRB03KT 10SM FEW016 FEW100 19/07 A2995 RMK AO2 SLP142 T01890072
KSJC 221853Z 00000KT 10SM FEW016 SCT100 17/07 A2997 RMK AO2 SLP147 T01670067
KSJC 221753Z 14009KT 10SM FEW012 SCT100 15/07 A2997 RMK AO2 SLP147 T01500067 10150 20106 50003
KSJC 221653Z 14009KT 10SM FEW017 BKN100 BKN160 13/07 A2997 RMK AO2 SLP149 T01330067
KSJC 221553Z 17010KT 10SM FEW013 BKN015 OVC023 12/07 A2996 RMK AO2 SLP144 T01170067
KSJC 221453Z 14010KT 10SM FEW013 BKN016 OVC023 11/07 A2996 RMK AO2 SLP144 T01110067 51014
KSJC 221353Z 13009KT 10SM OVC017 11/06 A2995 RMK AO2 SLP141 T01060061
KSJC 221253Z 14008KT 10SM OVC018 11/07 A2993 RMK AO2 SLP134 T01060067
KSJC 221153Z AUTO 15011KT 10SM OVC017 11/07 A2992 RMK AO2 SLP129 T01060067 10122 20100 53003
KSJC 221053Z AUTO 14012KT 10SM OVC018 11/06 A2990 RMK AO2 SLP125 T01060061
KSJC 220953Z AUTO 14010KT 10SM OVC017 11/07 A2990 RMK AO2 SLP125 T01110067
KSJC 220853Z AUTO 14009KT 10SM OVC018 12/07 A2991 RMK AO2 SLP126 T01170072 52001
KSJC 220753Z AUTO 10004KT 10SM OVC018 12/07 A2990 RMK AO2 SLP126 T01220072 402060089
KSJC 220653Z 00000KT 10SM FEW003 OVC017 12/07 A2991 RMK AO2 SLP126 LAST T01170067
KSJC 220553Z 01003KT 10SM FEW004 BKN022 11/07 A2990 RMK AO2 SLP126 T01110067 10183 20111 50014
KSJC 220453Z 01003KT 10SM FEW004 BKN022 11/07 A2990 RMK AO2 SLP126 T01110067
KSJC 220353Z 35008KT 10SM FEW004 FEW020 11/07 A2989 RMK AO2 SLP121 T01110072
KSJC 220253Z 35011KT 10SM FEW000 12/08 A2986 RMK AO2 SLP112 FG FEW000 T01220078 53009

KSJC 222332Z 2300/2324 33013KT P6SM SKC
  FM230400 32007KT P6SM SKC
  FM230800 15011KT P6SM BKN015
  FM231600 14008KT P6SM SCT015 SCT250
  FM231800 32006KT P6SM FEW015 BKN250
  FM232100 31011KT P6SM BKN200


KSFO 230056Z 27019KT 10SM FEW008 BKN013 12/07 A2996 RMK AO2 SLP145 T01220067
KSFO 222356Z 27015G22KT 10SM FEW005 BKN014 13/07 A2996 RMK AO2 PK WND 27026/2301 SLP144 T01280072 10167 20128 55010
KSFO 222256Z 27022KT 10SM FEW007 BKN016 14/07 A2996 RMK AO2 PK WND 27026/2255 SLP144 T01440072
KSFO 222156Z 27015KT 10SM FEW007 BKN015 14/07 A2998 RMK AO2 SLP153 T01390072
KSFO 222056Z 27018KT 10SM FEW006 BKN018 14/08 A2999 RMK AO2 SLP155 T01440078 53004
KSFO 222030Z 26016KT 10SM FEW006 BKN020 16/08 A2999 RMK AO2 T01610078
KSFO 221956Z 26014KT 10SM FEW006 SCT022 16/08 A2998 RMK AO2 SLP152 T01610078
KSFO 221856Z 23010KT 10SM FEW006 SCT023 16/08 A2998 RMK AO2 SLP151 T01560078
KSFO 221813Z 25007KT 10SM FEW006 SCT023 16/07 A2998 RMK AO2 T01610072
KSFO 221808Z VRB05KT 10SM FEW006 BKN023 16/08 A2998 RMK AO2 T01560078
KSFO 221756Z 02004KT 10SM FEW006 SCT021 16/08 A2998 RMK AO2 SLP150 T01610083 10161 20106 53010
KSFO 221739Z 15004KT 10SM FEW006 SCT020 14/07 A2997 RMK AO2 T01440067
KSFO 221656Z 19005KT 10SM FEW006 BKN018 14/08 A2996 RMK AO2 SLP146 T01390078
KSFO 221556Z VRB06KT 10SM FEW006 BKN016 13/08 A2996 RMK AO2 SLP145 T01280078
KSFO 221456Z 15007KT 10SM FEW006 BKN015 12/07 A2995 RMK AO2 SLP140 T01170072 53009
KSFO 221356Z 20006KT 10SM FEW006 BKN015 12/07 A2994 RMK AO2 SLP137 T01170072
KSFO 221256Z 24004KT 10SM FEW008 BKN015 BKN017 11/07 A2993 RMK AO2 SLP133 T01110072
KSFO 221156Z 00000KT 10SM FEW008 BKN015 BKN021 11/07 A2992 RMK AO2 SLP131 T01060067 10111 20100 53004
KSFO 221056Z 00000KT 10SM FEW008 11/06 A2990 RMK AO2 SLP126 T01060061
KSFO 220956Z 22004KT 10SM FEW008 10/06 A2990 RMK AO2 SLP125 T01000061
KSFO 220856Z 00000KT 10SM FEW008 11/06 A2991 RMK AO2 SLP127 T01110061 50002
KSFO 220756Z 29003KT 10SM FEW008 11/06 A2991 RMK AO2 SLP128 T01060061 401780106
KSFO 220656Z 00000KT 10SM FEW008 11/06 A2991 RMK AO2 SLP128 T01110061
KSFO 220556Z 00000KT 10SM FEW008 11/07 A2990 RMK AO2 SLP125 T01110067 10139 20111 51011
KSFO 220456Z 26008KT 10SM FEW007 SCT013 12/07 A2990 RMK AO2 SLP124 T01170067
KSFO 220356Z 23010KT 10SM FEW007 BKN012 12/07 A2989 RMK AO2 SLP121 T01170072
KSFO 220256Z 26012KT 8SM FEW007 BKN013 12/07 A2987 RMK AO2 SLP114 T01220072 53000
KSFO 220156Z 27013G19KT 10SM FEW007 BKN013 12/07 A2986 RMK AO2 SLP111 T01220072

KSFO 222332Z 2300/2406 27021KT P6SM FEW007 BKN016
  FM230300 27014KT P6SM FEW006 OVC014
  FM230600 25009KT P6SM FEW005 OVC012
  FM231000 23006KT P6SM FEW005 OVC009
  FM231800 28013KT P6SM FEW006 SCT012 SCT250
  FM232000 27016KT P6SM FEW007 FEW012 BKN250
  FM240300 27014KT P6SM FEW007 BKN200


KHAF 230135Z AUTO 30007KT 3SM BR OVC012 09/08 A2999 RMK AO2
KHAF 230115Z AUTO 30007KT 3SM BR OVC012 10/08 A2999 RMK AO2
KHAF 230055Z AUTO 29007KT 2 1/2SM BR OVC012 09/08 A2999 RMK AO2
KHAF 230035Z AUTO 29006KT 3SM BR FEW009 OVC014 10/08 A3000 RMK AO2
KHAF 230015Z AUTO 29010KT 2SM BR BKN009 OVC014 10/08 A2999 RMK AO2
KHAF 222355Z AUTO 28008KT 3SM BR FEW009 BKN014 10/08 A3000 RMK AO2
KHAF 222335Z AUTO 25008KT 2 1/2SM BR BKN014 10/08 A3000 RMK AO2
KHAF 222315Z AUTO 25007KT 3SM BR FEW006 SCT011 OVC016 10/09 A3001 RMK AO2
KHAF 222255Z AUTO 25006KT 3SM BR BKN006 BKN016 10/08 A3001 RMK AO2
KHAF 222235Z AUTO 25007KT 3SM BR SCT006 BKN016 10/09 A3001 RMK AO2
KHAF 222215Z AUTO 23005KT 2 1/2SM BR FEW007 BKN016 10/09 A3001 RMK AO2
KHAF 222155Z AUTO 24004KT 2 1/2SM -RA BKN014 10/09 A3002 RMK AO2
KHAF 222135Z AUTO 24005KT 2SM BR SCT006 OVC012 10/09 A3003 RMK AO2
KHAF 222115Z AUTO 24006KT 2SM BR BKN006 OVC015 10/08 A3003 RMK AO2
KHAF 222055Z AUTO 25005KT 1 3/4SM BR BKN005 BKN013 10/09 A3003 RMK AO2
KHAF 222035Z AUTO 22006KT 1 1/2SM BR SCT005 BKN013 10/09 A3003 RMK AO2
KHAF 222015Z AUTO 21006KT 1 3/4SM BR SCT005 SCT013 10/08 A3003 RMK AO2
KHAF 221955Z AUTO 23007KT 2SM BR SCT013 10/08 A3003 RMK AO2
KHAF 221935Z AUTO 22005KT 3SM BR FEW007 SCT013 10/08 A3002 RMK AO2
KHAF 221915Z AUTO 22006KT 1 1/2SM BR BKN006 09/08 A3003 RMK AO2
KHAF 221855Z AUTO 22005KT 1 1/4SM BR BKN013 09/08 A3003 RMK AO2
KHAF 221835Z AUTO 23008KT 2 1/2SM BR OVC013 10/08 A3002 RMK AO2
KHAF 221815Z AUTO 22005KT 3SM BR FEW006 BKN013 10/08 A3002 RMK AO2
KHAF 221755Z AUTO 22006KT 1 1/2SM BR BKN006 BKN013 09/08 A3002 RMK AO2
KHAF 221735Z AUTO 18007KT 2SM BR BKN007 BKN013 10/09 A3001 RMK AO2
KHAF 221715Z AUTO 19007KT 1 1/2SM BR BKN006 09/08 A3000 RMK AO2
KHAF 221655Z AUTO 19007KT 1SM BR OVC006 09/08 A3000 RMK AO2
KHAF 221635Z AUTO 21005KT 1 1/2SM BR OVC005 09/08 A3000 RMK AO2
KHAF 221615Z AUTO 22006KT 1 1/4SM BR BKN009 OVC013 09/08 A3000 RMK AO2
KHAF 221555Z AUTO 18005KT 2 1/2SM BR BKN009 OVC013 09/08 A2999 RMK AO2
KHAF 221535Z AUTO 19006KT 2 1/2SM BR OVC011 09/08 A2999 RMK AO2
KHAF 221515Z AUTO 17008KT 2SM BR OVC011 09/08 A2998 RMK AO2
KHAF 221455Z AUTO 16006KT 2 1/2SM BR FEW006 OVC011 09/08 A2997 RMK AO2
KHAF 221435Z AUTO 18005KT 2 1/2SM BR OVC011 09/08 A2996 RMK AO2
KHAF 221415Z AUTO 18007KT 2SM BR OVC009 09/08 A2996 RMK AO2
KHAF 221355Z AUTO 19006KT 1 3/4SM BR OVC011 09/08 A2996 RMK AO2
KHAF 221335Z AUTO 19006KT 3SM BR OVC011 09/08 A2995 RMK AO2
KHAF 221315Z AUTO 21003KT 3SM BR OVC011 09/08 A2995 RMK AO2
KHAF 221255Z AUTO 21005KT 2 1/2SM BR BKN007 OVC013 09/08 A2994 RMK AO2
KHAF 221235Z AUTO 18007KT 2 1/2SM BR OVC009 09/08 A2994 RMK AO2
KHAF 221215Z AUTO 17008KT 2 1/2SM BR OVC009 09/08 A2994 RMK AO2
KHAF 221155Z AUTO 17007KT 3SM BR OVC009 09/08 A2994 RMK AO2
KHAF 221135Z AUTO 17006KT 3SM BR OVC009 09/08 A2994 RMK AO2
KHAF 221115Z AUTO 17008KT 3SM BR OVC011 09/08 A2993 RMK AO2
KHAF 221055Z AUTO 16008KT 4SM BR OVC011 09/08 A2993 RMK AO2
KHAF 221035Z AUTO 16008KT 4SM BR OVC011 09/08 A2993 RMK AO2
KHAF 221015Z AUTO 17008KT 4SM BR OVC011 09/08 A2993 RMK AO2
KHAF 220955Z AUTO 17008KT 4SM BR OVC011 09/08 A2993 RMK AO2
KHAF 220935Z AUTO 17007KT 4SM BR OVC011 09/08 A2993 RMK AO2
KHAF 220915Z AUTO 17007KT 5SM HZ OVC011 10/07 A2993 RMK AO2
KHAF 220855Z AUTO 18006KT 5SM BR OVC011 09/07 A2993 RMK AO2
KHAF 220835Z AUTO 19005KT 3SM BR OVC011 09/07 A2993 RMK AO2
KHAF 220815Z AUTO 19005KT 4SM HZ OVC013 10/07 A2994 RMK AO2
KHAF 220755Z AUTO 18005KT 5SM BR OVC013 09/07 A2994 RMK AO2
KHAF 220735Z AUTO 17007KT 5SM BR OVC013 10/08 A2993 RMK AO2
KHAF 220715Z AUTO 19005KT 5SM BR OVC013 10/08 A2993 RMK AO2
KHAF 220655Z AUTO 17005KT 4SM BR OVC013 10/08 A2993 RMK AO2
KHAF 220635Z AUTO 19006KT 4SM HZ OVC013 10/07 A2993 RMK AO2
KHAF 220615Z AUTO 16005KT 4SM BR OVC013 10/08 A2993 RMK AO2
KHAF 220555Z AUTO 18004KT 4SM HZ OVC013 10/07 A2993 RMK AO2
KHAF 220535Z AUTO 18003KT 4SM HZ OVC013 10/07 A2992 RMK AO2
KHAF 220515Z AUTO 19003KT 3SM BR OVC011 10/08 A2992 RMK AO2
KHAF 220455Z AUTO 20003KT 4SM -RA OVC011 10/08 A2992 RMK AO2
KHAF 220435Z AUTO 00000KT 4SM HZ OVC011 10/07 A2992 RMK AO2
KHAF 220415Z AUTO 25003KT 4SM -RA OVC011 10/07 A2991 RMK AO2
KHAF 220355Z AUTO 00000KT 4SM BR OVC011 10/08 A2991 RMK AO2
KHAF 220335Z AUTO 27003KT 4SM BR OVC011 10/08 A2990 RMK AO2
KHAF 220315Z AUTO 30005KT 4SM BR OVC011 10/08 A2990 RMK AO2
KHAF 220255Z AUTO 27005KT 3SM BR OVC011 10/08 A2990 RMK AO2
KHAF 220235Z AUTO 29005KT 3SM BR OVC011 10/08 A2989 RMK AO2
KHAF 220215Z AUTO 26005KT 2 1/2SM BR OVC013 10/08 A2989 RMK AO2
No TAF found for KHAF